sensor_id;sensor_type;location;lat;lon;timestamp;temperature;humidity
9399;DHT22;4739;49.334;8.792;2022-12-07T00:00:53;4.10;99.90
9399;DHT22;4739;49.334;8.792;2022-12-07T00:03:19;4.10;99.90
9399;DHT22;4739;49.334;8.792;2022-12-07T00:05:45;4.00;99.90
9399;DHT22;4739;49.334;8.792;2022-12-07T00:08:10;3.90;99.90
9399;DHT22;4739;49.334;8.792;2022-12-07T00:10:36;3.90;99.90
9399;DHT22;4739;49.334;8.792;2022-12-07T00:13:01;3.90;99.90
9399;DHT22;4739;49.334;8.792;2022-12-07T00:15:27;4.00;99.90
9399;DHT22;4739;49.334;8.792;2022-12-07T00:17:53;4.00;99.90
9399;DHT22;4739;49.334;8.792;2022-12-07T00:20:18;4.00;99.90
9399;DHT22;4739;49.334;8.792;2022-12-07T00:22:44;3.90;99.90
9399;DHT22;4739;49.334;8.792;2022-12-07T00:25:09;3.90;99.90
9399;DHT22;4739;49.334;8.792;2022-12-07T00:27:35;3.80;99.90
9399;DHT22;4739;49.334;8.792;2022-12-07T00:30:00;3.80;99.90
9399;DHT22;4739;49.334;8.792;2022-12-07T00:32:26;3.80;99.90
9399;DHT22;4739;49.334;8.792;2022-12-07T00:34:52;4.00;99.90
9399;DHT22;4739;49.334;8.792;2022-12-07T00:37:17;4.10;99.90
9399;DHT22;4739;49.334;8.792;2022-12-07T00:39:43;4.20;99.90
9399;DHT22;4739;49.334;8.792;2022-12-07T00:42:08;4.20;99.90
9399;DHT22;4739;49.334;8.792;2022-12-07T00:44:34;4.20;99.90
9399;DHT22;4739;49.334;8.792;2022-12-07T00:46:59;4.30;99.90
9399;DHT22;4739;49.334;8.792;2022-12-07T00:49:25;4.40;99.90
9399;DHT22;4739;49.334;8.792;2022-12-07T00:51:50;4.30;99.90
9399;DHT22;4739;49.334;8.792;2022-12-07T00:54:16;4.20;99.90
9399;DHT22;4739;49.334;8.792;2022-12-07T00:56:42;4.10;99.90
9399;DHT22;4739;49.334;8.792;2022-12-07T00:59:12;4.10;99.90
9399;DHT22;4739;49.334;8.792;2022-12-07T01:01:38;4.10;99.90
9399;DHT22;4739;49.334;8.792;2022-12-07T01:04:05;4.00;99.90
9399;DHT22;4739;49.334;8.792;2022-12-07T01:06:31;4.00;99.90
9399;DHT22;4739;49.334;8.792;2022-12-07T01:08:57;4.10;99.90
9399;DHT22;4739;49.334;8.792;2022-12-07T01:11:25;4.10;99.90
9399;DHT22;4739;49.334;8.792;2022-12-07T01:13:52;4.00;99.90
9399;DHT22;4739;49.334;8.792;2022-12-07T01:16:20;4.00;99.90
9399;DHT22;4739;49.334;8.792;2022-12-07T01:18:47;4.00;99.90
9399;DHT22;4739;49.334;8.792;2022-12-07T01:21:16;4.00;99.90
9399;DHT22;4739;49.334;8.792;2022-12-07T01:23:44;4.00;99.90
9399;DHT22;4739;49.334;8.792;2022-12-07T01:26:12;4.10;99.90
9399;DHT22;4739;49.334;8.792;2022-12-07T01:28:38;4.00;99.90
9399;DHT22;4739;49.334;8.792;2022-12-07T01:33:33;4.00;99.90
9399;DHT22;4739;49.334;8.792;2022-12-07T01:38:32;4.10;99.90
9399;DHT22;4739;49.334;8.792;2022-12-07T01:40:59;4.10;99.90
9399;DHT22;4739;49.334;8.792;2022-12-07T01:43:28;4.10;99.90
9399;DHT22;4739;49.334;8.792;2022-12-07T01:45:54;4.20;99.90
9399;DHT22;4739;49.334;8.792;2022-12-07T01:48:27;4.30;99.90
9399;DHT22;4739;49.334;8.792;2022-12-07T01:50:55;4.30;99.90
9399;DHT22;4739;49.334;8.792;2022-12-07T01:53:25;4.40;99.90
9399;DHT22;4739;49.334;8.792;2022-12-07T01:55:54;4.30;99.90
9399;DHT22;4739;49.334;8.792;2022-12-07T01:58:21;4.30;99.90
9399;DHT22;4739;49.334;8.792;2022-12-07T02:00:47;4.20;99.90
9399;DHT22;4739;49.334;8.792;2022-12-07T02:03:18;4.20;99.90
9399;DHT22;4739;49.334;8.792;2022-12-07T02:05:45;4.20;99.90
9399;DHT22;4739;49.334;8.792;2022-12-07T02:08:12;4.20;99.90
9399;DHT22;4739;49.334;8.792;2022-12-07T02:10:39;4.10;99.90
9399;DHT22;4739;49.334;8.792;2022-12-07T02:13:10;4.10;99.90
9399;DHT22;4739;49.334;8.792;2022-12-07T02:18:45;4.10;99.90
9399;DHT22;4739;49.334;8.792;2022-12-07T02:21:56;4.20;99.90
9399;DHT22;4739;49.334;8.792;2022-12-07T02:27:34;4.30;99.90
9399;DHT22;4739;49.334;8.792;2022-12-07T02:30:14;4.50;99.90
9399;DHT22;4739;49.334;8.792;2022-12-07T02:32:56;4.50;99.90
9399;DHT22;4739;49.334;8.792;2022-12-07T02:40:53;4.40;99.90
9399;DHT22;4739;49.334;8.792;2022-12-07T02:43:21;4.30;99.90
9399;DHT22;4739;49.334;8.792;2022-12-07T02:45:50;4.30;99.90
9399;DHT22;4739;49.334;8.792;2022-12-07T02:48:18;4.40;99.90
9399;DHT22;4739;49.334;8.792;2022-12-07T02:50:48;4.30;99.90
9399;DHT22;4739;49.334;8.792;2022-12-07T02:53:37;4.20;99.90
9399;DHT22;4739;49.334;8.792;2022-12-07T03:04:41;4.10;99.90
9399;DHT22;4739;49.334;8.792;2022-12-07T03:09:52;4.20;99.90
9399;DHT22;4739;49.334;8.792;2022-12-07T03:16:08;4.40;99.90
9399;DHT22;4739;49.334;8.792;2022-12-07T03:18:07;4.40;99.90
9399;DHT22;4739;49.334;8.792;2022-12-07T03:20:35;4.50;99.90
9399;DHT22;4739;49.334;8.792;2022-12-07T03:23:05;4.40;99.90
9399;DHT22;4739;49.334;8.792;2022-12-07T03:25:38;4.50;99.90
9399;DHT22;4739;49.334;8.792;2022-12-07T03:28:06;4.50;99.90
9399;DHT22;4739;49.334;8.792;2022-12-07T03:30:37;4.50;99.90
9399;DHT22;4739;49.334;8.792;2022-12-07T03:33:12;4.40;99.90
9399;DHT22;4739;49.334;8.792;2022-12-07T03:38:31;4.30;99.90
9399;DHT22;4739;49.334;8.792;2022-12-07T03:41:18;4.20;99.90
9399;DHT22;4739;49.334;8.792;2022-12-07T03:43:47;4.20;99.90
9399;DHT22;4739;49.334;8.792;2022-12-07T03:46:36;4.10;99.90
9399;DHT22;4739;49.334;8.792;2022-12-07T03:49:11;4.20;99.90
9399;DHT22;4739;49.334;8.792;2022-12-07T03:52:03;4.20;99.90
9399;DHT22;4739;49.334;8.792;2022-12-07T03:54:41;4.20;99.90
9399;DHT22;4739;49.334;8.792;2022-12-07T03:57:10;4.20;99.90
9399;DHT22;4739;49.334;8.792;2022-12-07T03:59:37;4.20;99.90
9399;DHT22;4739;49.334;8.792;2022-12-07T04:02:06;4.20;99.90
9399;DHT22;4739;49.334;8.792;2022-12-07T04:04:32;4.20;99.90
9399;DHT22;4739;49.334;8.792;2022-12-07T04:06:59;4.20;99.90
9399;DHT22;4739;49.334;8.792;2022-12-07T04:09:24;4.30;99.90
9399;DHT22;4739;49.334;8.792;2022-12-07T04:11:50;4.40;99.90
9399;DHT22;4739;49.334;8.792;2022-12-07T04:14:15;4.40;99.90
9399;DHT22;4739;49.334;8.792;2022-12-07T04:16:52;4.40;99.90
9399;DHT22;4739;49.334;8.792;2022-12-07T04:19:20;4.40;99.90
9399;DHT22;4739;49.334;8.792;2022-12-07T04:21:46;4.40;99.90
9399;DHT22;4739;49.334;8.792;2022-12-07T04:24:14;4.40;99.90
9399;DHT22;4739;49.334;8.792;2022-12-07T04:26:40;4.50;99.90
9399;DHT22;4739;49.334;8.792;2022-12-07T04:29:06;4.50;99.90
9399;DHT22;4739;49.334;8.792;2022-12-07T04:31:32;4.50;99.90
9399;DHT22;4739;49.334;8.792;2022-12-07T04:33:58;4.50;99.90
9399;DHT22;4739;49.334;8.792;2022-12-07T04:36:23;4.50;99.90
9399;DHT22;4739;49.334;8.792;2022-12-07T04:38:49;4.50;99.90
9399;DHT22;4739;49.334;8.792;2022-12-07T04:41:14;4.30;99.90
9399;DHT22;4739;49.334;8.792;2022-12-07T04:43:40;4.40;99.90
9399;DHT22;4739;49.334;8.792;2022-12-07T04:46:05;4.40;99.90
9399;DHT22;4739;49.334;8.792;2022-12-07T04:48:31;4.50;99.90
9399;DHT22;4739;49.334;8.792;2022-12-07T04:50:57;4.60;99.90
9399;DHT22;4739;49.334;8.792;2022-12-07T04:53:22;4.50;99.90
9399;DHT22;4739;49.334;8.792;2022-12-07T04:55:48;4.50;99.90
9399;DHT22;4739;49.334;8.792;2022-12-07T04:58:14;4.50;99.90
9399;DHT22;4739;49.334;8.792;2022-12-07T05:00:40;4.60;99.90
9399;DHT22;4739;49.334;8.792;2022-12-07T05:03:05;4.60;99.90
9399;DHT22;4739;49.334;8.792;2022-12-07T05:05:31;4.60;99.90
9399;DHT22;4739;49.334;8.792;2022-12-07T05:07:57;4.70;99.90
9399;DHT22;4739;49.334;8.792;2022-12-07T05:10:22;4.80;99.90
9399;DHT22;4739;49.334;8.792;2022-12-07T05:12:48;4.60;99.90
9399;DHT22;4739;49.334;8.792;2022-12-07T05:15:14;4.60;99.90
9399;DHT22;4739;49.334;8.792;2022-12-07T05:17:40;4.60;99.90
9399;DHT22;4739;49.334;8.792;2022-12-07T05:20:07;4.60;99.90
9399;DHT22;4739;49.334;8.792;2022-12-07T05:22:33;4.50;99.90
9399;DHT22;4739;49.334;8.792;2022-12-07T05:24:59;4.50;99.90
9399;DHT22;4739;49.334;8.792;2022-12-07T05:27:24;4.60;99.90
9399;DHT22;4739;49.334;8.792;2022-12-07T05:29:50;4.60;99.90
9399;DHT22;4739;49.334;8.792;2022-12-07T05:32:17;4.60;99.90
9399;DHT22;4739;49.334;8.792;2022-12-07T05:34:42;4.50;99.90
9399;DHT22;4739;49.334;8.792;2022-12-07T05:37:08;4.50;99.90
9399;DHT22;4739;49.334;8.792;2022-12-07T05:39:33;4.50;99.90
9399;DHT22;4739;49.334;8.792;2022-12-07T05:41:59;4.40;99.90
9399;DHT22;4739;49.334;8.792;2022-12-07T05:44:41;4.40;99.90
9399;DHT22;4739;49.334;8.792;2022-12-07T05:47:07;4.40;99.90
9399;DHT22;4739;49.334;8.792;2022-12-07T05:49:33;4.50;99.90
9399;DHT22;4739;49.334;8.792;2022-12-07T05:51:59;4.50;99.90
9399;DHT22;4739;49.334;8.792;2022-12-07T05:54:25;4.50;99.90
9399;DHT22;4739;49.334;8.792;2022-12-07T05:56:50;4.50;99.90
9399;DHT22;4739;49.334;8.792;2022-12-07T05:59:16;4.60;99.90
9399;DHT22;4739;49.334;8.792;2022-12-07T06:01:56;4.50;99.90
9399;DHT22;4739;49.334;8.792;2022-12-07T06:04:23;4.50;99.90
9399;DHT22;4739;49.334;8.792;2022-12-07T06:06:50;4.60;99.90
9399;DHT22;4739;49.334;8.792;2022-12-07T06:09:16;4.60;99.90
9399;DHT22;4739;49.334;8.792;2022-12-07T06:11:43;4.70;99.90
9399;DHT22;4739;49.334;8.792;2022-12-07T06:14:27;4.70;99.90
9399;DHT22;4739;49.334;8.792;2022-12-07T06:16:53;4.70;99.90
9399;DHT22;4739;49.334;8.792;2022-12-07T06:19:18;4.70;99.90
9399;DHT22;4739;49.334;8.792;2022-12-07T06:21:44;4.80;99.90
9399;DHT22;4739;49.334;8.792;2022-12-07T06:24:14;4.70;99.90
9399;DHT22;4739;49.334;8.792;2022-12-07T06:26:40;4.70;99.90
9399;DHT22;4739;49.334;8.792;2022-12-07T06:29:06;4.60;99.90
9399;DHT22;4739;49.334;8.792;2022-12-07T06:31:32;4.60;99.90
9399;DHT22;4739;49.334;8.792;2022-12-07T06:34:03;4.60;99.90
9399;DHT22;4739;49.334;8.792;2022-12-07T06:36:29;4.50;99.90
9399;DHT22;4739;49.334;8.792;2022-12-07T06:38:55;4.60;99.90
9399;DHT22;4739;49.334;8.792;2022-12-07T06:41:21;4.60;99.90
9399;DHT22;4739;49.334;8.792;2022-12-07T06:43:47;4.60;99.90
9399;DHT22;4739;49.334;8.792;2022-12-07T06:46:13;4.60;99.90
9399;DHT22;4739;49.334;8.792;2022-12-07T06:48:40;4.60;99.90
9399;DHT22;4739;49.334;8.792;2022-12-07T06:51:05;4.60;99.90
9399;DHT22;4739;49.334;8.792;2022-12-07T06:53:31;4.50;99.90
9399;DHT22;4739;49.334;8.792;2022-12-07T06:55:57;4.50;99.90
9399;DHT22;4739;49.334;8.792;2022-12-07T06:58:22;4.40;99.90
9399;DHT22;4739;49.334;8.792;2022-12-07T07:00:48;4.40;99.90
9399;DHT22;4739;49.334;8.792;2022-12-07T07:03:15;4.50;99.90
9399;DHT22;4739;49.334;8.792;2022-12-07T07:05:42;4.50;99.90
9399;DHT22;4739;49.334;8.792;2022-12-07T07:08:08;4.50;99.90
9399;DHT22;4739;49.334;8.792;2022-12-07T07:10:33;4.50;99.90
9399;DHT22;4739;49.334;8.792;2022-12-07T07:12:59;4.40;99.90
9399;DHT22;4739;49.334;8.792;2022-12-07T07:15:25;4.30;99.90
9399;DHT22;4739;49.334;8.792;2022-12-07T07:17:50;4.40;99.90
9399;DHT22;4739;49.334;8.792;2022-12-07T07:20:16;4.40;99.90
9399;DHT22;4739;49.334;8.792;2022-12-07T07:22:41;4.50;99.90
9399;DHT22;4739;49.334;8.792;2022-12-07T07:25:07;4.60;99.90
9399;DHT22;4739;49.334;8.792;2022-12-07T07:27:33;4.60;99.90
9399;DHT22;4739;49.334;8.792;2022-12-07T07:29:58;4.60;99.90
9399;DHT22;4739;49.334;8.792;2022-12-07T07:32:24;4.70;99.90
9399;DHT22;4739;49.334;8.792;2022-12-07T07:34:49;4.70;99.90
9399;DHT22;4739;49.334;8.792;2022-12-07T07:37:15;4.80;99.90
9399;DHT22;4739;49.334;8.792;2022-12-07T07:39:41;4.80;99.90
9399;DHT22;4739;49.334;8.792;2022-12-07T07:42:06;4.80;99.90
9399;DHT22;4739;49.334;8.792;2022-12-07T07:44:33;4.70;99.90
9399;DHT22;4739;49.334;8.792;2022-12-07T07:46:59;4.70;99.90
9399;DHT22;4739;49.334;8.792;2022-12-07T07:49:26;4.80;99.90
9399;DHT22;4739;49.334;8.792;2022-12-07T07:51:52;4.90;99.90
9399;DHT22;4739;49.334;8.792;2022-12-07T07:54:17;4.90;99.90
9399;DHT22;4739;49.334;8.792;2022-12-07T07:56:43;5.00;99.90
9399;DHT22;4739;49.334;8.792;2022-12-07T07:59:08;5.00;99.90
9399;DHT22;4739;49.334;8.792;2022-12-07T08:01:34;5.00;99.90
9399;DHT22;4739;49.334;8.792;2022-12-07T08:04:00;5.00;99.90
9399;DHT22;4739;49.334;8.792;2022-12-07T08:06:25;4.90;99.90
9399;DHT22;4739;49.334;8.792;2022-12-07T08:08:52;4.90;99.90
9399;DHT22;4739;49.334;8.792;2022-12-07T08:11:17;4.90;99.90
9399;DHT22;4739;49.334;8.792;2022-12-07T08:13:45;4.90;99.90
9399;DHT22;4739;49.334;8.792;2022-12-07T08:16:12;5.00;99.90
9399;DHT22;4739;49.334;8.792;2022-12-07T08:18:39;5.10;99.90
9399;DHT22;4739;49.334;8.792;2022-12-07T08:21:06;5.00;99.90
9399;DHT22;4739;49.334;8.792;2022-12-07T08:23:33;5.00;99.90
9399;DHT22;4739;49.334;8.792;2022-12-07T08:26:04;5.10;99.90
9399;DHT22;4739;49.334;8.792;2022-12-07T08:28:30;5.20;99.90
9399;DHT22;4739;49.334;8.792;2022-12-07T08:31:04;5.20;99.90
9399;DHT22;4739;49.334;8.792;2022-12-07T08:33:30;5.30;99.90
9399;DHT22;4739;49.334;8.792;2022-12-07T08:38:26;5.30;99.90
9399;DHT22;4739;49.334;8.792;2022-12-07T08:40:56;5.40;99.90
9399;DHT22;4739;49.334;8.792;2022-12-07T08:43:22;5.40;99.90
9399;DHT22;4739;49.334;8.792;2022-12-07T08:46:03;5.50;99.90
9399;DHT22;4739;49.334;8.792;2022-12-07T08:48:30;5.50;99.90
9399;DHT22;4739;49.334;8.792;2022-12-07T08:50:56;5.60;99.90
9399;DHT22;4739;49.334;8.792;2022-12-07T08:53:21;5.50;99.90
9399;DHT22;4739;49.334;8.792;2022-12-07T08:55:48;5.50;99.90
9399;DHT22;4739;49.334;8.792;2022-12-07T08:58:14;5.40;99.90
9399;DHT22;4739;49.334;8.792;2022-12-07T09:00:39;5.40;99.90
9399;DHT22;4739;49.334;8.792;2022-12-07T09:03:05;5.30;99.90
9399;DHT22;4739;49.334;8.792;2022-12-07T09:05:32;5.40;99.90
9399;DHT22;4739;49.334;8.792;2022-12-07T09:08:00;5.30;99.90
9399;DHT22;4739;49.334;8.792;2022-12-07T09:10:27;5.40;99.90
9399;DHT22;4739;49.334;8.792;2022-12-07T09:12:53;5.30;99.90
9399;DHT22;4739;49.334;8.792;2022-12-07T09:15:19;5.40;99.90
9399;DHT22;4739;49.334;8.792;2022-12-07T09:17:44;5.40;99.90
9399;DHT22;4739;49.334;8.792;2022-12-07T09:20:10;5.40;99.90
9399;DHT22;4739;49.334;8.792;2022-12-07T09:22:36;5.40;99.90
9399;DHT22;4739;49.334;8.792;2022-12-07T09:25:02;5.50;99.90
9399;DHT22;4739;49.334;8.792;2022-12-07T09:27:28;5.50;99.90
9399;DHT22;4739;49.334;8.792;2022-12-07T09:29:53;5.50;99.90
9399;DHT22;4739;49.334;8.792;2022-12-07T09:32:19;5.50;99.90
9399;DHT22;4739;49.334;8.792;2022-12-07T09:34:45;5.50;99.90
9399;DHT22;4739;49.334;8.792;2022-12-07T09:37:11;5.40;99.90
9399;DHT22;4739;49.334;8.792;2022-12-07T09:39:40;5.50;99.90
9399;DHT22;4739;49.334;8.792;2022-12-07T09:42:06;5.60;99.90
9399;DHT22;4739;49.334;8.792;2022-12-07T09:44:33;5.60;99.90
9399;DHT22;4739;49.334;8.792;2022-12-07T09:47:00;5.60;99.90
9399;DHT22;4739;49.334;8.792;2022-12-07T09:49:29;5.60;99.90
9399;DHT22;4739;49.334;8.792;2022-12-07T09:54:44;5.50;99.90
9399;DHT22;4739;49.334;8.792;2022-12-07T09:57:11;5.70;99.90
9399;DHT22;4739;49.334;8.792;2022-12-07T09:59:38;5.80;99.90
9399;DHT22;4739;49.334;8.792;2022-12-07T10:02:35;5.80;99.90
9399;DHT22;4739;49.334;8.792;2022-12-07T10:05:01;6.00;99.90
9399;DHT22;4739;49.334;8.792;2022-12-07T10:07:29;6.10;99.90
9399;DHT22;4739;49.334;8.792;2022-12-07T10:09:55;6.10;99.90
9399;DHT22;4739;49.334;8.792;2022-12-07T10:12:20;6.30;99.90
9399;DHT22;4739;49.334;8.792;2022-12-07T10:15:04;6.30;99.90
9399;DHT22;4739;49.334;8.792;2022-12-07T10:17:37;6.30;99.90
9399;DHT22;4739;49.334;8.792;2022-12-07T10:22:57;6.50;99.90
9399;DHT22;4739;49.334;8.792;2022-12-07T10:25:26;6.40;99.90
9399;DHT22;4739;49.334;8.792;2022-12-07T10:30:56;6.20;99.90
9399;DHT22;4739;49.334;8.792;2022-12-07T10:33:34;6.20;99.90
9399;DHT22;4739;49.334;8.792;2022-12-07T10:36:09;6.20;99.90
9399;DHT22;4739;49.334;8.792;2022-12-07T10:38:45;6.20;99.90
9399;DHT22;4739;49.334;8.792;2022-12-07T10:41:11;6.20;99.90
9399;DHT22;4739;49.334;8.792;2022-12-07T10:43:49;6.20;99.90
9399;DHT22;4739;49.334;8.792;2022-12-07T10:52:14;5.90;99.90
9399;DHT22;4739;49.334;8.792;2022-12-07T10:55:11;6.00;99.90
9399;DHT22;4739;49.334;8.792;2022-12-07T10:57:55;6.10;99.90
9399;DHT22;4739;49.334;8.792;2022-12-07T11:00:25;6.30;99.90
9399;DHT22;4739;49.334;8.792;2022-12-07T11:03:04;6.50;99.90
9399;DHT22;4739;49.334;8.792;2022-12-07T11:05:56;6.60;99.90
9399;DHT22;4739;49.334;8.792;2022-12-07T11:08:47;6.50;99.90
9399;DHT22;4739;49.334;8.792;2022-12-07T11:11:33;6.50;99.90
9399;DHT22;4739;49.334;8.792;2022-12-07T11:17:20;6.70;99.90
9399;DHT22;4739;49.334;8.792;2022-12-07T11:25:18;6.70;99.90
9399;DHT22;4739;49.334;8.792;2022-12-07T11:27:48;6.70;99.90
9399;DHT22;4739;49.334;8.792;2022-12-07T11:30:23;6.70;99.90
9399;DHT22;4739;49.334;8.792;2022-12-07T11:33:06;6.70;99.90
9399;DHT22;4739;49.334;8.792;2022-12-07T11:41:05;7.00;99.90
9399;DHT22;4739;49.334;8.792;2022-12-07T11:44:00;7.00;99.90
9399;DHT22;4739;49.334;8.792;2022-12-07T11:51:52;7.60;99.90
9399;DHT22;4739;49.334;8.792;2022-12-07T11:54:28;7.60;99.90
9399;DHT22;4739;49.334;8.792;2022-12-07T11:56:56;7.20;99.90
9399;DHT22;4739;49.334;8.792;2022-12-07T11:59:35;6.90;99.90
9399;DHT22;4739;49.334;8.792;2022-12-07T12:02:15;7.00;99.90
9399;DHT22;4739;49.334;8.792;2022-12-07T12:04:50;6.90;99.90
9399;DHT22;4739;49.334;8.792;2022-12-07T12:07:26;7.00;99.90
9399;DHT22;4739;49.334;8.792;2022-12-07T12:09:53;6.80;99.90
9399;DHT22;4739;49.334;8.792;2022-12-07T12:15:39;6.70;99.90
9399;DHT22;4739;49.334;8.792;2022-12-07T12:21:10;6.70;99.90
9399;DHT22;4739;49.334;8.792;2022-12-07T12:23:49;6.80;99.90
9399;DHT22;4739;49.334;8.792;2022-12-07T12:26:23;6.70;99.90
9399;DHT22;4739;49.334;8.792;2022-12-07T12:29:00;6.70;99.90
9399;DHT22;4739;49.334;8.792;2022-12-07T12:33:58;6.70;99.90
9399;DHT22;4739;49.334;8.792;2022-12-07T12:47:00;6.40;99.90
9399;DHT22;4739;49.334;8.792;2022-12-07T12:49:34;6.30;99.90
9399;DHT22;4739;49.334;8.792;2022-12-07T12:55:14;6.20;99.90
9399;DHT22;4739;49.334;8.792;2022-12-07T12:57:45;6.30;99.90
9399;DHT22;4739;49.334;8.792;2022-12-07T13:00:20;6.30;99.90
9399;DHT22;4739;49.334;8.792;2022-12-07T13:02:56;6.40;99.90
9399;DHT22;4739;49.334;8.792;2022-12-07T13:05:30;6.30;99.90
9399;DHT22;4739;49.334;8.792;2022-12-07T13:08:23;6.30;99.90
9399;DHT22;4739;49.334;8.792;2022-12-07T13:10:50;6.30;99.90
9399;DHT22;4739;49.334;8.792;2022-12-07T13:18:37;6.10;99.90
9399;DHT22;4739;49.334;8.792;2022-12-07T13:24:06;6.10;99.90
9399;DHT22;4739;49.334;8.792;2022-12-07T13:26:37;6.10;99.90
9399;DHT22;4739;49.334;8.792;2022-12-07T13:29:18;6.20;99.90
9399;DHT22;4739;49.334;8.792;2022-12-07T13:31:51;6.10;99.90
9399;DHT22;4739;49.334;8.792;2022-12-07T13:34:39;6.00;99.90
9399;DHT22;4739;49.334;8.792;2022-12-07T13:39:58;6.00;99.90
9399;DHT22;4739;49.334;8.792;2022-12-07T13:42:33;6.00;99.90
9399;DHT22;4739;49.334;8.792;2022-12-07T13:45:01;6.00;99.90
9399;DHT22;4739;49.334;8.792;2022-12-07T13:47:46;6.00;99.90
9399;DHT22;4739;49.334;8.792;2022-12-07T13:52:56;6.10;99.90
9399;DHT22;4739;49.334;8.792;2022-12-07T13:55:22;6.20;99.90
9399;DHT22;4739;49.334;8.792;2022-12-07T13:57:50;6.10;99.90
9399;DHT22;4739;49.334;8.792;2022-12-07T14:00:27;6.10;99.90
9399;DHT22;4739;49.334;8.792;2022-12-07T14:03:00;6.20;99.90
9399;DHT22;4739;49.334;8.792;2022-12-07T14:05:34;6.30;99.90
9399;DHT22;4739;49.334;8.792;2022-12-07T14:10:30;6.10;99.90
9399;DHT22;4739;49.334;8.792;2022-12-07T14:12:57;6.20;99.90
9399;DHT22;4739;49.334;8.792;2022-12-07T14:15:29;6.10;99.90
9399;DHT22;4739;49.334;8.792;2022-12-07T14:17:57;6.10;99.90
9399;DHT22;4739;49.334;8.792;2022-12-07T14:20:37;6.10;99.90
9399;DHT22;4739;49.334;8.792;2022-12-07T14:23:04;6.00;99.90
9399;DHT22;4739;49.334;8.792;2022-12-07T14:25:52;6.10;99.90
9399;DHT22;4739;49.334;8.792;2022-12-07T14:28:29;6.20;99.90
9399;DHT22;4739;49.334;8.792;2022-12-07T14:30:56;6.20;99.90
9399;DHT22;4739;49.334;8.792;2022-12-07T14:33:22;6.20;99.90
9399;DHT22;4739;49.334;8.792;2022-12-07T14:38:22;6.20;99.90
9399;DHT22;4739;49.334;8.792;2022-12-07T14:40:48;6.20;99.90
9399;DHT22;4739;49.334;8.792;2022-12-07T14:43:16;6.10;99.90
9399;DHT22;4739;49.334;8.792;2022-12-07T14:45:42;6.10;99.90
9399;DHT22;4739;49.334;8.792;2022-12-07T14:48:11;6.10;99.90
9399;DHT22;4739;49.334;8.792;2022-12-07T14:50:44;6.10;99.90
9399;DHT22;4739;49.334;8.792;2022-12-07T14:53:14;6.00;99.90
9399;DHT22;4739;49.334;8.792;2022-12-07T14:55:40;6.10;99.90
9399;DHT22;4739;49.334;8.792;2022-12-07T14:58:14;6.10;99.90
9399;DHT22;4739;49.334;8.792;2022-12-07T15:00:40;6.10;99.90
9399;DHT22;4739;49.334;8.792;2022-12-07T15:03:07;6.00;99.90
9399;DHT22;4739;49.334;8.792;2022-12-07T15:05:33;6.10;99.90
9399;DHT22;4739;49.334;8.792;2022-12-07T15:07:58;6.10;99.90
9399;DHT22;4739;49.334;8.792;2022-12-07T15:10:30;6.20;99.90
9399;DHT22;4739;49.334;8.792;2022-12-07T15:13:02;6.10;99.90
9399;DHT22;4739;49.334;8.792;2022-12-07T15:15:47;6.00;99.90
9399;DHT22;4739;49.334;8.792;2022-12-07T15:18:14;6.00;99.90
9399;DHT22;4739;49.334;8.792;2022-12-07T15:20:40;6.00;99.90
9399;DHT22;4739;49.334;8.792;2022-12-07T15:23:06;6.00;99.90
9399;DHT22;4739;49.334;8.792;2022-12-07T15:25:32;6.10;99.90
9399;DHT22;4739;49.334;8.792;2022-12-07T15:27:58;6.10;99.90
9399;DHT22;4739;49.334;8.792;2022-12-07T15:30:24;6.10;99.90
9399;DHT22;4739;49.334;8.792;2022-12-07T15:32:53;6.10;99.90
9399;DHT22;4739;49.334;8.792;2022-12-07T15:35:19;6.00;99.90
9399;DHT22;4739;49.334;8.792;2022-12-07T15:37:45;6.00;99.90
9399;DHT22;4739;49.334;8.792;2022-12-07T15:40:12;6.00;99.90
9399;DHT22;4739;49.334;8.792;2022-12-07T15:42:40;5.90;99.90
9399;DHT22;4739;49.334;8.792;2022-12-07T15:45:07;5.90;99.90
9399;DHT22;4739;49.334;8.792;2022-12-07T15:47:43;5.90;99.90
9399;DHT22;4739;49.334;8.792;2022-12-07T15:50:13;5.80;99.90
9399;DHT22;4739;49.334;8.792;2022-12-07T15:52:40;5.70;99.90
9399;DHT22;4739;49.334;8.792;2022-12-07T15:55:07;5.80;99.90
9399;DHT22;4739;49.334;8.792;2022-12-07T15:57:34;5.80;99.90
9399;DHT22;4739;49.334;8.792;2022-12-07T16:00:00;5.80;99.90
9399;DHT22;4739;49.334;8.792;2022-12-07T16:02:27;5.80;99.90
9399;DHT22;4739;49.334;8.792;2022-12-07T16:04:53;5.80;99.90
9399;DHT22;4739;49.334;8.792;2022-12-07T16:07:20;5.80;99.90
9399;DHT22;4739;49.334;8.792;2022-12-07T16:09:46;5.80;99.90
9399;DHT22;4739;49.334;8.792;2022-12-07T16:12:13;5.70;99.90
9399;DHT22;4739;49.334;8.792;2022-12-07T16:14:40;5.80;99.90
9399;DHT22;4739;49.334;8.792;2022-12-07T16:17:08;5.60;99.90
9399;DHT22;4739;49.334;8.792;2022-12-07T16:19:36;5.50;99.90
9399;DHT22;4739;49.334;8.792;2022-12-07T16:22:03;5.50;99.90
9399;DHT22;4739;49.334;8.792;2022-12-07T16:24:29;5.60;99.90
9399;DHT22;4739;49.334;8.792;2022-12-07T16:26:55;5.60;99.90
9399;DHT22;4739;49.334;8.792;2022-12-07T16:29:21;5.70;99.90
9399;DHT22;4739;49.334;8.792;2022-12-07T16:31:48;5.70;99.90
9399;DHT22;4739;49.334;8.792;2022-12-07T16:34:13;5.70;99.90
9399;DHT22;4739;49.334;8.792;2022-12-07T16:36:39;5.70;99.90
9399;DHT22;4739;49.334;8.792;2022-12-07T16:39:06;5.70;99.90
9399;DHT22;4739;49.334;8.792;2022-12-07T16:41:34;5.60;99.90
9399;DHT22;4739;49.334;8.792;2022-12-07T16:44:03;5.60;99.90
9399;DHT22;4739;49.334;8.792;2022-12-07T16:46:31;5.50;99.90
9399;DHT22;4739;49.334;8.792;2022-12-07T16:48:58;5.50;99.90
9399;DHT22;4739;49.334;8.792;2022-12-07T16:51:24;5.50;99.90
9399;DHT22;4739;49.334;8.792;2022-12-07T16:53:53;5.40;99.90
9399;DHT22;4739;49.334;8.792;2022-12-07T16:56:19;5.50;99.90
9399;DHT22;4739;49.334;8.792;2022-12-07T16:58:45;5.50;99.90
9399;DHT22;4739;49.334;8.792;2022-12-07T17:01:19;5.50;99.90
9399;DHT22;4739;49.334;8.792;2022-12-07T17:03:46;5.50;99.90
9399;DHT22;4739;49.334;8.792;2022-12-07T17:06:17;5.50;99.90
9399;DHT22;4739;49.334;8.792;2022-12-07T17:08:43;5.60;99.90
9399;DHT22;4739;49.334;8.792;2022-12-07T17:11:23;5.50;99.90
9399;DHT22;4739;49.334;8.792;2022-12-07T17:13:50;5.50;99.90
9399;DHT22;4739;49.334;8.792;2022-12-07T17:16:35;5.50;99.90
9399;DHT22;4739;49.334;8.792;2022-12-07T17:19:04;5.40;99.90
9399;DHT22;4739;49.334;8.792;2022-12-07T17:21:30;5.40;99.90
9399;DHT22;4739;49.334;8.792;2022-12-07T17:23:58;5.50;99.90
9399;DHT22;4739;49.334;8.792;2022-12-07T17:26:26;5.50;99.90
9399;DHT22;4739;49.334;8.792;2022-12-07T17:28:52;5.50;99.90
9399;DHT22;4739;49.334;8.792;2022-12-07T17:31:21;5.50;99.90
9399;DHT22;4739;49.334;8.792;2022-12-07T17:33:47;5.40;99.90
9399;DHT22;4739;49.334;8.792;2022-12-07T17:36:15;5.40;99.90
9399;DHT22;4739;49.334;8.792;2022-12-07T17:38:41;5.40;99.90
9399;DHT22;4739;49.334;8.792;2022-12-07T17:41:13;5.40;99.90
9399;DHT22;4739;49.334;8.792;2022-12-07T17:43:59;5.30;99.90
9399;DHT22;4739;49.334;8.792;2022-12-07T17:46:24;5.30;99.90
9399;DHT22;4739;49.334;8.792;2022-12-07T17:48:53;5.30;99.90
9399;DHT22;4739;49.334;8.792;2022-12-07T17:51:19;5.20;99.90
9399;DHT22;4739;49.334;8.792;2022-12-07T17:54:03;5.30;99.90
9399;DHT22;4739;49.334;8.792;2022-12-07T17:56:29;5.30;99.90
9399;DHT22;4739;49.334;8.792;2022-12-07T17:58:55;5.40;99.90
9399;DHT22;4739;49.334;8.792;2022-12-07T18:01:20;5.40;99.90
9399;DHT22;4739;49.334;8.792;2022-12-07T18:03:46;5.30;99.90
9399;DHT22;4739;49.334;8.792;2022-12-07T18:06:14;5.30;99.90
9399;DHT22;4739;49.334;8.792;2022-12-07T18:08:40;5.40;99.90
9399;DHT22;4739;49.334;8.792;2022-12-07T18:11:05;5.30;99.90
9399;DHT22;4739;49.334;8.792;2022-12-07T18:13:32;5.20;99.90
9399;DHT22;4739;49.334;8.792;2022-12-07T18:16:18;5.20;99.90
9399;DHT22;4739;49.334;8.792;2022-12-07T18:18:44;5.20;99.90
9399;DHT22;4739;49.334;8.792;2022-12-07T18:21:16;5.10;99.90